createdAt,value
2022-09-06T00:07:23.489Z,54.10
2022-09-06T00:37:26.906Z,55.28
2022-09-06T01:07:29.800Z,56.64
2022-09-06T01:37:32.857Z,57.90
2022-09-06T02:07:36.332Z,58.81
2022-09-06T02:37:40.576Z,59.19
2022-09-06T03:07:43.900Z,60.66
2022-09-06T03:37:46.710Z,58.87
2022-09-06T04:07:49.949Z,60.42
2022-09-06T04:37:52.656Z,59.89
2022-09-06T05:07:57.035Z,61.91
2022-09-06T05:37:59.763Z,57.88
2022-09-06T06:08:03.167Z,54.37
2022-09-06T06:38:05.959Z,61.57
2022-09-06T07:08:08.877Z,56.91
2022-09-06T07:38:11.918Z,61.34
2022-09-06T08:38:38.883Z,55.87
2022-09-06T09:08:42.082Z,51.59
2022-09-06T09:38:45.120Z,45.97
2022-09-06T10:08:48.605Z,43.50
2022-09-06T10:38:52.071Z,39.84
2022-09-06T11:08:58.154Z,39.14
2022-09-06T11:39:01.790Z,37.76
2022-09-06T12:09:05.002Z,36.59
2022-09-06T12:39:08.099Z,38.59
2022-09-06T13:09:11.622Z,38.48
2022-09-06T13:39:14.689Z,38.77
2022-09-06T14:09:18.064Z,39.85
2022-09-06T14:39:20.965Z,39.40
2022-09-06T15:09:24.596Z,40.07
2022-09-06T15:39:27.491Z,40.75
2022-09-06T16:09:30.832Z,41.31
2022-09-06T16:39:33.659Z,42.00
2022-09-06T17:09:36.938Z,43.29
2022-09-06T17:39:39.753Z,44.41
2022-09-06T18:09:43.503Z,45.52
2022-09-06T18:39:46.346Z,46.48
2022-09-06T19:09:50.467Z,47.12
2022-09-06T19:39:53.257Z,48.48
2022-09-06T20:09:56.703Z,49.16
2022-09-06T20:39:59.503Z,50.23
2022-09-06T21:10:03.337Z,51.35
2022-09-06T21:40:06.264Z,51.97
2022-09-06T22:10:09.364Z,52.53
2022-09-06T22:40:12.861Z,53.30
2022-09-06T23:10:15.704Z,54.03
2022-09-06T23:40:19.021Z,55.08
